sensor_id;sensor_type;location;lat;lon;timestamp;temperature;humidity
56426;DHT22;42330;43.620;3.856;2022-12-10T00:02:09;8.50;99.90
56426;DHT22;42330;43.620;3.856;2022-12-10T00:04:35;8.50;99.90
56426;DHT22;42330;43.620;3.856;2022-12-10T00:07:01;8.50;99.90
56426;DHT22;42330;43.620;3.856;2022-12-10T00:09:26;8.50;99.90
56426;DHT22;42330;43.620;3.856;2022-12-10T00:11:52;8.50;99.90
56426;DHT22;42330;43.620;3.856;2022-12-10T00:14:18;8.50;99.90
56426;DHT22;42330;43.620;3.856;2022-12-10T00:16:44;8.40;99.90
56426;DHT22;42330;43.620;3.856;2022-12-10T00:19:10;8.50;99.90
56426;DHT22;42330;43.620;3.856;2022-12-10T00:21:36;8.50;99.90
56426;DHT22;42330;43.620;3.856;2022-12-10T00:24:03;8.50;99.90
56426;DHT22;42330;43.620;3.856;2022-12-10T00:26:35;8.50;99.90
56426;DHT22;42330;43.620;3.856;2022-12-10T00:29:03;8.50;99.90
56426;DHT22;42330;43.620;3.856;2022-12-10T00:31:32;8.60;99.90
56426;DHT22;42330;43.620;3.856;2022-12-10T00:34:00;8.60;99.90
56426;DHT22;42330;43.620;3.856;2022-12-10T00:36:32;8.60;99.90
56426;DHT22;42330;43.620;3.856;2022-12-10T00:38:59;8.60;99.90
56426;DHT22;42330;43.620;3.856;2022-12-10T00:41:25;8.60;99.90
56426;DHT22;42330;43.620;3.856;2022-12-10T00:43:50;8.60;99.90
56426;DHT22;42330;43.620;3.856;2022-12-10T00:46:18;8.60;99.90
56426;DHT22;42330;43.620;3.856;2022-12-10T00:48:44;8.60;99.90
56426;DHT22;42330;43.620;3.856;2022-12-10T00:51:21;8.50;99.90
56426;DHT22;42330;43.620;3.856;2022-12-10T00:53:48;8.50;99.90
56426;DHT22;42330;43.620;3.856;2022-12-10T00:56:16;8.30;99.90
56426;DHT22;42330;43.620;3.856;2022-12-10T00:58:42;8.20;99.90
56426;DHT22;42330;43.620;3.856;2022-12-10T01:01:32;8.20;99.90
56426;DHT22;42330;43.620;3.856;2022-12-10T01:04:01;8.20;99.90
56426;DHT22;42330;43.620;3.856;2022-12-10T01:08:56;8.30;99.90
56426;DHT22;42330;43.620;3.856;2022-12-10T01:11:26;8.30;99.90
56426;DHT22;42330;43.620;3.856;2022-12-10T01:13:53;8.20;99.90
56426;DHT22;42330;43.620;3.856;2022-12-10T01:16:20;8.30;99.90
56426;DHT22;42330;43.620;3.856;2022-12-10T01:18:46;8.20;99.90
56426;DHT22;42330;43.620;3.856;2022-12-10T01:21:17;8.20;99.90
56426;DHT22;42330;43.620;3.856;2022-12-10T01:23:46;8.20;99.90
56426;DHT22;42330;43.620;3.856;2022-12-10T01:26:15;8.20;99.90
56426;DHT22;42330;43.620;3.856;2022-12-10T01:28:41;8.20;99.90
56426;DHT22;42330;43.620;3.856;2022-12-10T01:31:25;8.10;99.90
56426;DHT22;42330;43.620;3.856;2022-12-10T01:33:51;8.10;99.90
56426;DHT22;42330;43.620;3.856;2022-12-10T01:36:20;8.00;99.90
56426;DHT22;42330;43.620;3.856;2022-12-10T01:38:46;8.00;99.90
56426;DHT22;42330;43.620;3.856;2022-12-10T01:41:18;8.10;99.90
56426;DHT22;42330;43.620;3.856;2022-12-10T01:46:16;8.20;99.90
56426;DHT22;42330;43.620;3.856;2022-12-10T01:48:42;8.20;99.90
56426;DHT22;42330;43.620;3.856;2022-12-10T01:51:08;8.20;99.90
56426;DHT22;42330;43.620;3.856;2022-12-10T01:53:34;8.20;99.90
56426;DHT22;42330;43.620;3.856;2022-12-10T01:56:00;8.20;99.90
56426;DHT22;42330;43.620;3.856;2022-12-10T01:58:26;8.20;99.90
56426;DHT22;42330;43.620;3.856;2022-12-10T02:01:08;8.20;99.90
56426;DHT22;42330;43.620;3.856;2022-12-10T02:09:25;8.10;99.90
56426;DHT22;42330;43.620;3.856;2022-12-10T02:15:15;8.20;99.90
56426;DHT22;42330;43.620;3.856;2022-12-10T02:17:48;8.20;99.90
56426;DHT22;42330;43.620;3.856;2022-12-10T02:22:54;8.20;99.90
56426;DHT22;42330;43.620;3.856;2022-12-10T02:25:29;8.20;99.90
56426;DHT22;42330;43.620;3.856;2022-12-10T02:31:10;8.20;99.90
56426;DHT22;42330;43.620;3.856;2022-12-10T02:33:43;8.30;99.90
56426;DHT22;42330;43.620;3.856;2022-12-10T02:36:10;8.20;99.90
56426;DHT22;42330;43.620;3.856;2022-12-10T02:38:39;8.30;99.90
56426;DHT22;42330;43.620;3.856;2022-12-10T02:41:13;8.20;99.90
56426;DHT22;42330;43.620;3.856;2022-12-10T02:43:40;8.20;99.90
56426;DHT22;42330;43.620;3.856;2022-12-10T02:46:06;8.10;99.90
56426;DHT22;42330;43.620;3.856;2022-12-10T02:48:33;8.10;99.90
56426;DHT22;42330;43.620;3.856;2022-12-10T02:50:59;8.10;99.90
56426;DHT22;42330;43.620;3.856;2022-12-10T02:53:25;8.10;99.90
56426;DHT22;42330;43.620;3.856;2022-12-10T02:56:20;8.10;99.90
56426;DHT22;42330;43.620;3.856;2022-12-10T03:01:40;8.10;99.90
56426;DHT22;42330;43.620;3.856;2022-12-10T03:07:18;8.10;99.90
56426;DHT22;42330;43.620;3.856;2022-12-10T03:09:51;8.00;99.90
56426;DHT22;42330;43.620;3.856;2022-12-10T03:12:25;8.00;99.90
56426;DHT22;42330;43.620;3.856;2022-12-10T03:14:57;8.00;99.90
56426;DHT22;42330;43.620;3.856;2022-12-10T03:17:24;8.00;99.90
56426;DHT22;42330;43.620;3.856;2022-12-10T03:19:50;8.00;99.90
56426;DHT22;42330;43.620;3.856;2022-12-10T03:22:19;8.00;99.90
56426;DHT22;42330;43.620;3.856;2022-12-10T03:24:46;8.00;99.90
56426;DHT22;42330;43.620;3.856;2022-12-10T03:27:14;7.90;99.90
56426;DHT22;42330;43.620;3.856;2022-12-10T03:29:50;7.90;99.90
56426;DHT22;42330;43.620;3.856;2022-12-10T03:32:18;7.90;99.90
56426;DHT22;42330;43.620;3.856;2022-12-10T03:34:46;7.90;99.90
56426;DHT22;42330;43.620;3.856;2022-12-10T03:37:13;7.70;99.90
56426;DHT22;42330;43.620;3.856;2022-12-10T03:39:40;7.70;99.90
56426;DHT22;42330;43.620;3.856;2022-12-10T03:42:06;7.70;99.90
56426;DHT22;42330;43.620;3.856;2022-12-10T03:44:34;7.60;99.90
56426;DHT22;42330;43.620;3.856;2022-12-10T03:47:03;7.60;99.90
56426;DHT22;42330;43.620;3.856;2022-12-10T03:49:29;7.50;99.90
56426;DHT22;42330;43.620;3.856;2022-12-10T03:51:54;7.60;99.90
56426;DHT22;42330;43.620;3.856;2022-12-10T03:54:20;7.50;99.90
56426;DHT22;42330;43.620;3.856;2022-12-10T03:56:46;7.40;99.90
56426;DHT22;42330;43.620;3.856;2022-12-10T03:59:12;7.30;99.90
56426;DHT22;42330;43.620;3.856;2022-12-10T04:01:38;7.40;99.90
56426;DHT22;42330;43.620;3.856;2022-12-10T04:04:04;7.40;99.90
56426;DHT22;42330;43.620;3.856;2022-12-10T04:06:30;7.40;99.90
56426;DHT22;42330;43.620;3.856;2022-12-10T04:08:56;7.40;99.90
56426;DHT22;42330;43.620;3.856;2022-12-10T04:11:22;7.40;99.90
56426;DHT22;42330;43.620;3.856;2022-12-10T04:13:49;7.50;99.90
56426;DHT22;42330;43.620;3.856;2022-12-10T04:16:34;7.60;99.90
56426;DHT22;42330;43.620;3.856;2022-12-10T04:19:03;7.60;99.90
56426;DHT22;42330;43.620;3.856;2022-12-10T04:21:31;7.60;99.90
56426;DHT22;42330;43.620;3.856;2022-12-10T04:24:16;7.60;99.90
56426;DHT22;42330;43.620;3.856;2022-12-10T04:27:16;7.60;99.90
56426;DHT22;42330;43.620;3.856;2022-12-10T04:29:43;7.70;99.90
56426;DHT22;42330;43.620;3.856;2022-12-10T04:32:08;7.70;99.90
56426;DHT22;42330;43.620;3.856;2022-12-10T04:34:34;7.60;99.90
56426;DHT22;42330;43.620;3.856;2022-12-10T04:37:01;7.60;99.90
56426;DHT22;42330;43.620;3.856;2022-12-10T04:39:27;7.50;99.90
56426;DHT22;42330;43.620;3.856;2022-12-10T04:41:53;7.50;99.90
56426;DHT22;42330;43.620;3.856;2022-12-10T04:44:18;7.60;99.90
56426;DHT22;42330;43.620;3.856;2022-12-10T04:46:45;7.50;99.90
56426;DHT22;42330;43.620;3.856;2022-12-10T04:49:11;7.50;99.90
56426;DHT22;42330;43.620;3.856;2022-12-10T04:51:37;7.50;99.90
56426;DHT22;42330;43.620;3.856;2022-12-10T04:54:03;7.50;99.90
56426;DHT22;42330;43.620;3.856;2022-12-10T04:56:29;7.40;99.90
56426;DHT22;42330;43.620;3.856;2022-12-10T04:58:56;7.40;99.90
56426;DHT22;42330;43.620;3.856;2022-12-10T05:01:22;7.30;99.90
56426;DHT22;42330;43.620;3.856;2022-12-10T05:03:48;7.30;99.90
56426;DHT22;42330;43.620;3.856;2022-12-10T05:06:15;7.20;99.90
56426;DHT22;42330;43.620;3.856;2022-12-10T05:08:41;7.10;99.90
56426;DHT22;42330;43.620;3.856;2022-12-10T05:11:12;7.20;99.90
56426;DHT22;42330;43.620;3.856;2022-12-10T05:13:39;7.20;99.90
56426;DHT22;42330;43.620;3.856;2022-12-10T05:16:07;7.30;99.90
56426;DHT22;42330;43.620;3.856;2022-12-10T05:18:34;7.10;99.90
56426;DHT22;42330;43.620;3.856;2022-12-10T05:21:02;7.10;99.90
56426;DHT22;42330;43.620;3.856;2022-12-10T05:23:28;7.00;99.90
56426;DHT22;42330;43.620;3.856;2022-12-10T05:28:34;7.00;99.90
56426;DHT22;42330;43.620;3.856;2022-12-10T05:31:00;7.10;99.90
56426;DHT22;42330;43.620;3.856;2022-12-10T05:33:27;7.20;99.90
56426;DHT22;42330;43.620;3.856;2022-12-10T05:38:23;7.20;99.90
56426;DHT22;42330;43.620;3.856;2022-12-10T05:40:49;7.20;99.90
56426;DHT22;42330;43.620;3.856;2022-12-10T05:43:15;7.10;99.90
56426;DHT22;42330;43.620;3.856;2022-12-10T05:45:41;7.10;99.90
56426;DHT22;42330;43.620;3.856;2022-12-10T05:48:08;7.00;99.90
56426;DHT22;42330;43.620;3.856;2022-12-10T05:50:34;7.00;99.90
56426;DHT22;42330;43.620;3.856;2022-12-10T05:52:59;7.00;99.90
56426;DHT22;42330;43.620;3.856;2022-12-10T05:55:25;6.90;99.90
56426;DHT22;42330;43.620;3.856;2022-12-10T05:57:52;6.90;99.90
56426;DHT22;42330;43.620;3.856;2022-12-10T06:00:18;6.90;99.90
56426;DHT22;42330;43.620;3.856;2022-12-10T06:02:44;6.90;99.90
56426;DHT22;42330;43.620;3.856;2022-12-10T06:05:09;6.80;99.90
56426;DHT22;42330;43.620;3.856;2022-12-10T06:07:35;6.80;99.90
56426;DHT22;42330;43.620;3.856;2022-12-10T06:10:01;6.80;99.90
56426;DHT22;42330;43.620;3.856;2022-12-10T06:12:26;6.80;99.90
56426;DHT22;42330;43.620;3.856;2022-12-10T06:14:52;6.80;99.90
56426;DHT22;42330;43.620;3.856;2022-12-10T06:17:17;6.80;99.90
56426;DHT22;42330;43.620;3.856;2022-12-10T06:19:43;6.80;99.90
56426;DHT22;42330;43.620;3.856;2022-12-10T06:22:09;6.80;99.90
56426;DHT22;42330;43.620;3.856;2022-12-10T06:24:34;6.90;99.90
56426;DHT22;42330;43.620;3.856;2022-12-10T06:27:00;7.00;99.90
56426;DHT22;42330;43.620;3.856;2022-12-10T06:29:26;7.00;99.90
56426;DHT22;42330;43.620;3.856;2022-12-10T06:31:51;7.00;99.90
56426;DHT22;42330;43.620;3.856;2022-12-10T06:34:17;7.00;99.90
56426;DHT22;42330;43.620;3.856;2022-12-10T06:36:42;7.00;99.90
56426;DHT22;42330;43.620;3.856;2022-12-10T06:39:08;7.00;99.90
56426;DHT22;42330;43.620;3.856;2022-12-10T06:41:34;6.90;99.90
56426;DHT22;42330;43.620;3.856;2022-12-10T06:43:59;6.90;99.90
56426;DHT22;42330;43.620;3.856;2022-12-10T06:46:26;6.90;99.90
56426;DHT22;42330;43.620;3.856;2022-12-10T06:48:53;6.90;99.90
56426;DHT22;42330;43.620;3.856;2022-12-10T06:51:19;6.90;99.90
56426;DHT22;42330;43.620;3.856;2022-12-10T06:53:45;6.90;99.90
56426;DHT22;42330;43.620;3.856;2022-12-10T06:56:14;6.80;99.90
56426;DHT22;42330;43.620;3.856;2022-12-10T06:58:40;6.80;99.90
56426;DHT22;42330;43.620;3.856;2022-12-10T07:01:13;6.80;99.90
56426;DHT22;42330;43.620;3.856;2022-12-10T07:03:39;6.90;99.90
56426;DHT22;42330;43.620;3.856;2022-12-10T07:06:06;6.80;99.90
56426;DHT22;42330;43.620;3.856;2022-12-10T07:08:33;6.80;99.90
56426;DHT22;42330;43.620;3.856;2022-12-10T07:10:58;6.70;99.90
56426;DHT22;42330;43.620;3.856;2022-12-10T07:13:24;6.70;99.90
56426;DHT22;42330;43.620;3.856;2022-12-10T07:15:50;6.70;99.90
56426;DHT22;42330;43.620;3.856;2022-12-10T07:18:16;6.70;99.90
56426;DHT22;42330;43.620;3.856;2022-12-10T07:20:41;6.80;99.90
56426;DHT22;42330;43.620;3.856;2022-12-10T07:23:07;6.70;99.90
56426;DHT22;42330;43.620;3.856;2022-12-10T07:25:33;6.70;99.90
56426;DHT22;42330;43.620;3.856;2022-12-10T07:27:59;6.70;99.90
56426;DHT22;42330;43.620;3.856;2022-12-10T07:30:24;6.70;99.90
56426;DHT22;42330;43.620;3.856;2022-12-10T07:32:50;6.70;99.90
56426;DHT22;42330;43.620;3.856;2022-12-10T07:35:16;6.60;99.90
56426;DHT22;42330;43.620;3.856;2022-12-10T07:37:41;6.60;99.90
56426;DHT22;42330;43.620;3.856;2022-12-10T07:40:07;6.60;99.90
56426;DHT22;42330;43.620;3.856;2022-12-10T07:42:33;6.60;99.90
56426;DHT22;42330;43.620;3.856;2022-12-10T07:44:59;6.60;99.90
56426;DHT22;42330;43.620;3.856;2022-12-10T07:47:24;6.60;99.90
56426;DHT22;42330;43.620;3.856;2022-12-10T07:49:50;6.60;99.90
56426;DHT22;42330;43.620;3.856;2022-12-10T07:52:16;6.60;99.90
56426;DHT22;42330;43.620;3.856;2022-12-10T07:54:42;6.60;99.90
56426;DHT22;42330;43.620;3.856;2022-12-10T07:57:07;6.70;99.90
56426;DHT22;42330;43.620;3.856;2022-12-10T07:59:33;6.80;99.90
56426;DHT22;42330;43.620;3.856;2022-12-10T08:01:59;6.80;99.90
56426;DHT22;42330;43.620;3.856;2022-12-10T08:04:27;6.90;99.90
56426;DHT22;42330;43.620;3.856;2022-12-10T08:06:54;6.90;99.90
56426;DHT22;42330;43.620;3.856;2022-12-10T08:09:20;7.00;99.90
56426;DHT22;42330;43.620;3.856;2022-12-10T08:11:46;7.30;99.90
56426;DHT22;42330;43.620;3.856;2022-12-10T08:14:11;7.50;99.90
56426;DHT22;42330;43.620;3.856;2022-12-10T08:16:37;7.60;99.90
56426;DHT22;42330;43.620;3.856;2022-12-10T08:19:03;7.80;99.90
56426;DHT22;42330;43.620;3.856;2022-12-10T08:21:31;7.90;99.90
56426;DHT22;42330;43.620;3.856;2022-12-10T08:23:57;7.90;99.90
56426;DHT22;42330;43.620;3.856;2022-12-10T08:26:25;8.10;98.70
56426;DHT22;42330;43.620;3.856;2022-12-10T08:28:51;8.10;98.90
56426;DHT22;42330;43.620;3.856;2022-12-10T08:31:20;8.10;99.30
56426;DHT22;42330;43.620;3.856;2022-12-10T08:33:46;8.10;99.30
56426;DHT22;42330;43.620;3.856;2022-12-10T08:36:13;8.00;99.90
56426;DHT22;42330;43.620;3.856;2022-12-10T08:38:40;8.10;99.60
56426;DHT22;42330;43.620;3.856;2022-12-10T08:41:20;8.30;93.10
56426;DHT22;42330;43.620;3.856;2022-12-10T08:43:46;8.30;95.40
56426;DHT22;42330;43.620;3.856;2022-12-10T08:46:13;8.40;95.40
56426;DHT22;42330;43.620;3.856;2022-12-10T08:48:40;8.30;97.00
56426;DHT22;42330;43.620;3.856;2022-12-10T08:51:06;8.30;97.30
56426;DHT22;42330;43.620;3.856;2022-12-10T08:53:33;8.30;99.40
56426;DHT22;42330;43.620;3.856;2022-12-10T08:55:59;8.30;99.90
56426;DHT22;42330;43.620;3.856;2022-12-10T08:58:24;8.30;99.90
56426;DHT22;42330;43.620;3.856;2022-12-10T09:00:50;8.30;96.50
56426;DHT22;42330;43.620;3.856;2022-12-10T09:03:16;8.30;98.60
56426;DHT22;42330;43.620;3.856;2022-12-10T09:05:42;8.50;91.20
56426;DHT22;42330;43.620;3.856;2022-12-10T09:08:08;8.50;93.40
56426;DHT22;42330;43.620;3.856;2022-12-10T09:10:35;8.50;92.40
56426;DHT22;42330;43.620;3.856;2022-12-10T09:13:02;8.50;93.10
56426;DHT22;42330;43.620;3.856;2022-12-10T09:15:27;8.50;95.60
56426;DHT22;42330;43.620;3.856;2022-12-10T09:17:53;8.50;92.90
56426;DHT22;42330;43.620;3.856;2022-12-10T09:20:18;8.50;94.00
56426;DHT22;42330;43.620;3.856;2022-12-10T09:22:44;8.40;94.20
56426;DHT22;42330;43.620;3.856;2022-12-10T09:25:10;8.40;94.40
56426;DHT22;42330;43.620;3.856;2022-12-10T09:27:36;8.40;92.70
56426;DHT22;42330;43.620;3.856;2022-12-10T09:30:04;8.40;91.80
56426;DHT22;42330;43.620;3.856;2022-12-10T09:32:30;8.40;92.20
56426;DHT22;42330;43.620;3.856;2022-12-10T09:34:55;8.50;89.70
56426;DHT22;42330;43.620;3.856;2022-12-10T09:37:21;8.50;87.80
56426;DHT22;42330;43.620;3.856;2022-12-10T09:39:47;8.60;89.20
56426;DHT22;42330;43.620;3.856;2022-12-10T09:42:21;8.60;87.70
56426;DHT22;42330;43.620;3.856;2022-12-10T09:47:29;8.70;87.00
56426;DHT22;42330;43.620;3.856;2022-12-10T09:50:20;8.70;85.20
56426;DHT22;42330;43.620;3.856;2022-12-10T09:52:48;8.70;87.40
56426;DHT22;42330;43.620;3.856;2022-12-10T09:55:42;8.70;86.90
56426;DHT22;42330;43.620;3.856;2022-12-10T09:58:21;8.70;82.90
56426;DHT22;42330;43.620;3.856;2022-12-10T10:00:52;8.60;83.70
56426;DHT22;42330;43.620;3.856;2022-12-10T10:03:19;8.60;83.10
56426;DHT22;42330;43.620;3.856;2022-12-10T10:05:52;8.60;81.90
56426;DHT22;42330;43.620;3.856;2022-12-10T10:08:54;8.50;79.10
56426;DHT22;42330;43.620;3.856;2022-12-10T10:11:24;8.50;79.70
56426;DHT22;42330;43.620;3.856;2022-12-10T10:14:22;8.50;80.20
56426;DHT22;42330;43.620;3.856;2022-12-10T10:16:53;8.50;78.30
56426;DHT22;42330;43.620;3.856;2022-12-10T10:19:28;8.50;81.00
56426;DHT22;42330;43.620;3.856;2022-12-10T10:21:56;8.60;82.80
56426;DHT22;42330;43.620;3.856;2022-12-10T10:24:26;8.70;82.80
56426;DHT22;42330;43.620;3.856;2022-12-10T10:26:57;8.90;80.50
56426;DHT22;42330;43.620;3.856;2022-12-10T10:29:24;8.90;81.00
56426;DHT22;42330;43.620;3.856;2022-12-10T10:32:15;9.00;77.40
56426;DHT22;42330;43.620;3.856;2022-12-10T10:34:42;9.00;77.70
56426;DHT22;42330;43.620;3.856;2022-12-10T10:37:19;9.10;77.90
56426;DHT22;42330;43.620;3.856;2022-12-10T10:39:50;9.00;77.30
56426;DHT22;42330;43.620;3.856;2022-12-10T10:44:51;8.80;75.90
56426;DHT22;42330;43.620;3.856;2022-12-10T10:47:29;8.90;74.60
56426;DHT22;42330;43.620;3.856;2022-12-10T10:49:55;9.10;75.60
56426;DHT22;42330;43.620;3.856;2022-12-10T10:52:21;9.40;74.00
56426;DHT22;42330;43.620;3.856;2022-12-10T10:54:48;9.60;75.40
56426;DHT22;42330;43.620;3.856;2022-12-10T10:59:46;9.30;77.20
56426;DHT22;42330;43.620;3.856;2022-12-10T11:02:35;9.20;76.60
56426;DHT22;42330;43.620;3.856;2022-12-10T11:05:16;9.00;73.30
56426;DHT22;42330;43.620;3.856;2022-12-10T11:07:42;8.90;75.30
56426;DHT22;42330;43.620;3.856;2022-12-10T11:10:22;8.90;75.90
56426;DHT22;42330;43.620;3.856;2022-12-10T11:15:41;8.90;73.10
56426;DHT22;42330;43.620;3.856;2022-12-10T11:18:27;8.90;73.90
56426;DHT22;42330;43.620;3.856;2022-12-10T11:21:16;8.90;73.70
56426;DHT22;42330;43.620;3.856;2022-12-10T11:23:48;8.90;74.10
56426;DHT22;42330;43.620;3.856;2022-12-10T11:28:57;8.90;72.80
56426;DHT22;42330;43.620;3.856;2022-12-10T11:36:38;9.00;74.90
56426;DHT22;42330;43.620;3.856;2022-12-10T11:39:38;9.10;72.80
56426;DHT22;42330;43.620;3.856;2022-12-10T11:47:43;9.10;72.70
56426;DHT22;42330;43.620;3.856;2022-12-10T11:52:56;9.10;73.20
56426;DHT22;42330;43.620;3.856;2022-12-10T11:55:38;9.00;73.70
56426;DHT22;42330;43.620;3.856;2022-12-10T11:58:26;9.10;72.30
56426;DHT22;42330;43.620;3.856;2022-12-10T12:01:22;9.00;72.50
56426;DHT22;42330;43.620;3.856;2022-12-10T12:15:44;9.20;72.40
56426;DHT22;42330;43.620;3.856;2022-12-10T12:18:57;9.20;74.70
56426;DHT22;42330;43.620;3.856;2022-12-10T12:21:07;9.20;72.20
56426;DHT22;42330;43.620;3.856;2022-12-10T12:23:49;9.20;73.90
56426;DHT22;42330;43.620;3.856;2022-12-10T12:26:43;9.80;70.80
56426;DHT22;42330;43.620;3.856;2022-12-10T12:29:25;11.30;67.10
56426;DHT22;42330;43.620;3.856;2022-12-10T12:32:17;12.40;66.90
56426;DHT22;42330;43.620;3.856;2022-12-10T12:34:56;11.00;64.10
56426;DHT22;42330;43.620;3.856;2022-12-10T12:37:32;10.40;69.00
56426;DHT22;42330;43.620;3.856;2022-12-10T12:40:27;10.10;69.10
56426;DHT22;42330;43.620;3.856;2022-12-10T12:42:54;9.90;69.20
56426;DHT22;42330;43.620;3.856;2022-12-10T12:45:45;9.90;70.00
56426;DHT22;42330;43.620;3.856;2022-12-10T12:48:34;9.70;70.20
56426;DHT22;42330;43.620;3.856;2022-12-10T12:51:19;9.70;69.40
56426;DHT22;42330;43.620;3.856;2022-12-10T12:53:46;9.90;72.70
56426;DHT22;42330;43.620;3.856;2022-12-10T12:56:35;10.40;68.60
56426;DHT22;42330;43.620;3.856;2022-12-10T13:01:59;11.30;69.20
56426;DHT22;42330;43.620;3.856;2022-12-10T13:04:27;10.70;67.80
56426;DHT22;42330;43.620;3.856;2022-12-10T13:07:30;10.40;67.00
56426;DHT22;42330;43.620;3.856;2022-12-10T13:12:49;10.20;70.50
56426;DHT22;42330;43.620;3.856;2022-12-10T13:15:38;10.60;68.20
56426;DHT22;42330;43.620;3.856;2022-12-10T13:41:39;14.00;59.10
56426;DHT22;42330;43.620;3.856;2022-12-10T13:44:32;14.90;60.20
56426;DHT22;42330;43.620;3.856;2022-12-10T13:55:29;13.70;56.50
56426;DHT22;42330;43.620;3.856;2022-12-10T14:03:48;14.60;57.90
56426;DHT22;42330;43.620;3.856;2022-12-10T14:06:25;13.60;56.90
56426;DHT22;42330;43.620;3.856;2022-12-10T14:09:03;12.90;57.50
56426;DHT22;42330;43.620;3.856;2022-12-10T14:11:43;12.20;59.20
56426;DHT22;42330;43.620;3.856;2022-12-10T14:14:15;11.90;60.90
56426;DHT22;42330;43.620;3.856;2022-12-10T14:16:42;12.00;60.50
56426;DHT22;42330;43.620;3.856;2022-12-10T14:19:12;12.60;61.10
56426;DHT22;42330;43.620;3.856;2022-12-10T14:21:41;12.30;62.60
56426;DHT22;42330;43.620;3.856;2022-12-10T14:24:30;13.60;60.60
56426;DHT22;42330;43.620;3.856;2022-12-10T14:27:13;12.80;58.80
56426;DHT22;42330;43.620;3.856;2022-12-10T14:29:44;11.70;62.10
56426;DHT22;42330;43.620;3.856;2022-12-10T14:32:16;11.10;63.10
56426;DHT22;42330;43.620;3.856;2022-12-10T14:34:43;11.50;63.00
56426;DHT22;42330;43.620;3.856;2022-12-10T14:37:13;11.20;62.40
56426;DHT22;42330;43.620;3.856;2022-12-10T14:39:40;10.50;63.60
56426;DHT22;42330;43.620;3.856;2022-12-10T14:42:09;10.20;63.20
56426;DHT22;42330;43.620;3.856;2022-12-10T14:44:39;9.90;65.40
56426;DHT22;42330;43.620;3.856;2022-12-10T14:47:17;9.70;64.50
56426;DHT22;42330;43.620;3.856;2022-12-10T14:49:49;9.60;65.80
56426;DHT22;42330;43.620;3.856;2022-12-10T14:52:22;9.50;65.30
56426;DHT22;42330;43.620;3.856;2022-12-10T14:54:49;9.20;64.70
56426;DHT22;42330;43.620;3.856;2022-12-10T14:57:28;9.10;66.90
56426;DHT22;42330;43.620;3.856;2022-12-10T15:02:39;8.90;68.60
56426;DHT22;42330;43.620;3.856;2022-12-10T15:05:21;8.80;67.80
56426;DHT22;42330;43.620;3.856;2022-12-10T15:07:56;8.70;69.10
56426;DHT22;42330;43.620;3.856;2022-12-10T15:10:24;8.50;68.80
56426;DHT22;42330;43.620;3.856;2022-12-10T15:12:50;8.50;70.70
56426;DHT22;42330;43.620;3.856;2022-12-10T15:15:18;8.40;69.10
56426;DHT22;42330;43.620;3.856;2022-12-10T15:20:45;8.30;69.80
56426;DHT22;42330;43.620;3.856;2022-12-10T15:28:38;8.20;69.30
56426;DHT22;42330;43.620;3.856;2022-12-10T15:31:27;8.10;69.60
56426;DHT22;42330;43.620;3.856;2022-12-10T15:34:05;8.00;68.60
56426;DHT22;42330;43.620;3.856;2022-12-10T15:36:36;8.00;68.60
56426;DHT22;42330;43.620;3.856;2022-12-10T15:39:29;8.00;68.30
56426;DHT22;42330;43.620;3.856;2022-12-10T15:41:55;7.90;70.20
56426;DHT22;42330;43.620;3.856;2022-12-10T15:49:46;7.80;71.80
56426;DHT22;42330;43.620;3.856;2022-12-10T15:52:17;7.70;72.20
56426;DHT22;42330;43.620;3.856;2022-12-10T15:54:46;7.70;70.80
56426;DHT22;42330;43.620;3.856;2022-12-10T15:57:18;7.60;72.10
56426;DHT22;42330;43.620;3.856;2022-12-10T15:59:47;7.50;73.20
56426;DHT22;42330;43.620;3.856;2022-12-10T16:07:47;7.20;72.70
56426;DHT22;42330;43.620;3.856;2022-12-10T16:10:15;7.10;73.70
56426;DHT22;42330;43.620;3.856;2022-12-10T16:12:42;6.90;73.60
56426;DHT22;42330;43.620;3.856;2022-12-10T16:15:15;6.80;74.20
56426;DHT22;42330;43.620;3.856;2022-12-10T16:17:42;6.70;74.90
56426;DHT22;42330;43.620;3.856;2022-12-10T16:20:28;6.70;75.20
56426;DHT22;42330;43.620;3.856;2022-12-10T16:22:56;6.60;74.70
56426;DHT22;42330;43.620;3.856;2022-12-10T16:25:24;6.50;75.20
56426;DHT22;42330;43.620;3.856;2022-12-10T16:27:50;6.40;74.80
56426;DHT22;42330;43.620;3.856;2022-12-10T16:30:19;6.40;75.40
56426;DHT22;42330;43.620;3.856;2022-12-10T16:32:46;6.30;75.60
56426;DHT22;42330;43.620;3.856;2022-12-10T16:35:13;6.30;76.50
56426;DHT22;42330;43.620;3.856;2022-12-10T16:37:49;6.20;75.90
56426;DHT22;42330;43.620;3.856;2022-12-10T16:40:20;6.10;75.60
56426;DHT22;42330;43.620;3.856;2022-12-10T16:42:46;6.00;77.10
56426;DHT22;42330;43.620;3.856;2022-12-10T16:45:18;6.00;77.90
56426;DHT22;42330;43.620;3.856;2022-12-10T16:47:45;6.00;77.40
56426;DHT22;42330;43.620;3.856;2022-12-10T16:50:11;5.90;77.70
56426;DHT22;42330;43.620;3.856;2022-12-10T16:52:37;6.00;78.00
56426;DHT22;42330;43.620;3.856;2022-12-10T16:55:04;5.90;77.50
56426;DHT22;42330;43.620;3.856;2022-12-10T16:57:30;5.90;77.30
56426;DHT22;42330;43.620;3.856;2022-12-10T16:59:56;5.90;77.40
56426;DHT22;42330;43.620;3.856;2022-12-10T17:02:21;5.80;77.80
56426;DHT22;42330;43.620;3.856;2022-12-10T17:04:47;5.70;77.20
56426;DHT22;42330;43.620;3.856;2022-12-10T17:07:14;5.60;79.10
56426;DHT22;42330;43.620;3.856;2022-12-10T17:09:41;5.70;78.70
56426;DHT22;42330;43.620;3.856;2022-12-10T17:12:08;5.60;78.60
56426;DHT22;42330;43.620;3.856;2022-12-10T17:14:42;5.50;78.80
56426;DHT22;42330;43.620;3.856;2022-12-10T17:17:13;5.60;80.10
56426;DHT22;42330;43.620;3.856;2022-12-10T17:19:39;5.50;78.50
56426;DHT22;42330;43.620;3.856;2022-12-10T17:22:08;5.50;79.90
56426;DHT22;42330;43.620;3.856;2022-12-10T17:24:35;5.30;76.90
56426;DHT22;42330;43.620;3.856;2022-12-10T17:27:13;5.20;78.80
56426;DHT22;42330;43.620;3.856;2022-12-10T17:29:41;5.30;79.40
56426;DHT22;42330;43.620;3.856;2022-12-10T17:32:12;5.20;78.50
56426;DHT22;42330;43.620;3.856;2022-12-10T17:34:39;5.20;79.20
56426;DHT22;42330;43.620;3.856;2022-12-10T17:37:11;5.20;79.70
56426;DHT22;42330;43.620;3.856;2022-12-10T17:39:37;5.20;79.40
56426;DHT22;42330;43.620;3.856;2022-12-10T17:42:03;5.10;78.90
56426;DHT22;42330;43.620;3.856;2022-12-10T17:44:29;5.10;79.70
56426;DHT22;42330;43.620;3.856;2022-12-10T17:46:55;5.00;79.10
56426;DHT22;42330;43.620;3.856;2022-12-10T17:49:20;5.00;79.80
56426;DHT22;42330;43.620;3.856;2022-12-10T17:51:46;4.90;79.70
56426;DHT22;42330;43.620;3.856;2022-12-10T17:54:12;4.90;81.20
56426;DHT22;42330;43.620;3.856;2022-12-10T17:56:38;4.90;79.90
56426;DHT22;42330;43.620;3.856;2022-12-10T17:59:04;4.90;82.20
56426;DHT22;42330;43.620;3.856;2022-12-10T18:01:30;4.90;83.30
56426;DHT22;42330;43.620;3.856;2022-12-10T18:03:56;5.10;83.00
56426;DHT22;42330;43.620;3.856;2022-12-10T18:06:25;5.10;81.90
56426;DHT22;42330;43.620;3.856;2022-12-10T18:08:52;5.10;83.00
56426;DHT22;42330;43.620;3.856;2022-12-10T18:11:42;5.00;81.20
56426;DHT22;42330;43.620;3.856;2022-12-10T18:14:08;5.20;83.70
56426;DHT22;42330;43.620;3.856;2022-12-10T18:16:35;5.00;79.80
56426;DHT22;42330;43.620;3.856;2022-12-10T18:19:04;4.80;79.70